sensor_id;sensor_type;location;lat;lon;timestamp;temperature;humidity
20459;DHT22;10388;52.314;7.938;2023-02-27T00:01:21;-2.20;99.90
20459;DHT22;10388;52.314;7.938;2023-02-27T00:03:52;-2.20;99.90
20459;DHT22;10388;52.314;7.938;2023-02-27T00:06:22;-2.30;99.90
20459;DHT22;10388;52.314;7.938;2023-02-27T00:08:53;-2.30;99.90
20459;DHT22;10388;52.314;7.938;2023-02-27T00:11:23;-2.30;99.90
20459;DHT22;10388;52.314;7.938;2023-02-27T00:13:54;-2.40;99.90
20459;DHT22;10388;52.314;7.938;2023-02-27T00:16:25;-2.40;99.90
20459;DHT22;10388;52.314;7.938;2023-02-27T00:18:55;-2.40;99.90
20459;DHT22;10388;52.314;7.938;2023-02-27T00:21:28;-2.50;99.90
20459;DHT22;10388;52.314;7.938;2023-02-27T00:23:59;-2.40;99.90
20459;DHT22;10388;52.314;7.938;2023-02-27T00:26:29;-2.50;99.90
20459;DHT22;10388;52.314;7.938;2023-02-27T00:29:00;-2.50;99.90
20459;DHT22;10388;52.314;7.938;2023-02-27T00:31:31;-2.50;99.90
20459;DHT22;10388;52.314;7.938;2023-02-27T00:34:01;-2.60;99.90
20459;DHT22;10388;52.314;7.938;2023-02-27T00:36:33;-2.60;99.90
20459;DHT22;10388;52.314;7.938;2023-02-27T00:39:03;-2.60;99.90
20459;DHT22;10388;52.314;7.938;2023-02-27T00:41:34;-2.60;99.90
20459;DHT22;10388;52.314;7.938;2023-02-27T00:44:04;-2.60;99.90
20459;DHT22;10388;52.314;7.938;2023-02-27T00:46:35;-2.70;99.90
20459;DHT22;10388;52.314;7.938;2023-02-27T00:49:05;-2.70;99.90
20459;DHT22;10388;52.314;7.938;2023-02-27T00:51:36;-2.70;99.90
20459;DHT22;10388;52.314;7.938;2023-02-27T00:54:06;-2.80;99.90
20459;DHT22;10388;52.314;7.938;2023-02-27T00:56:38;-2.70;99.90
20459;DHT22;10388;52.314;7.938;2023-02-27T00:59:10;-2.70;99.90
20459;DHT22;10388;52.314;7.938;2023-02-27T04:35:53;-4.50;99.90
20459;DHT22;10388;52.314;7.938;2023-02-27T04:38:40;-4.50;99.90
20459;DHT22;10388;52.314;7.938;2023-02-27T04:41:21;-4.60;99.90
20459;DHT22;10388;52.314;7.938;2023-02-27T04:43:53;-4.60;99.90
20459;DHT22;10388;52.314;7.938;2023-02-27T04:46:26;-4.50;99.90
20459;DHT22;10388;52.314;7.938;2023-02-27T04:49:01;-4.60;99.90
20459;DHT22;10388;52.314;7.938;2023-02-27T04:51:43;-4.60;99.90
20459;DHT22;10388;52.314;7.938;2023-02-27T04:54:21;-4.60;99.90
20459;DHT22;10388;52.314;7.938;2023-02-27T04:56:58;-4.60;99.90
20459;DHT22;10388;52.314;7.938;2023-02-27T04:59:40;-4.60;99.90
20459;DHT22;10388;52.314;7.938;2023-02-27T05:02:20;-4.60;99.90
20459;DHT22;10388;52.314;7.938;2023-02-27T05:04:59;-4.60;99.90
20459;DHT22;10388;52.314;7.938;2023-02-27T05:07:36;-4.70;99.90
20459;DHT22;10388;52.314;7.938;2023-02-27T05:10:20;-4.70;99.90
20459;DHT22;10388;52.314;7.938;2023-02-27T05:12:58;-4.70;99.90
20459;DHT22;10388;52.314;7.938;2023-02-27T05:15:38;-4.70;99.90
20459;DHT22;10388;52.314;7.938;2023-02-27T05:18:12;-4.70;99.90
20459;DHT22;10388;52.314;7.938;2023-02-27T05:23:38;-4.70;99.90
20459;DHT22;10388;52.314;7.938;2023-02-27T05:29:50;-4.80;99.90
20459;DHT22;10388;52.314;7.938;2023-02-27T05:35:44;-4.80;99.90
20459;DHT22;10388;52.314;7.938;2023-02-27T05:41:02;-4.90;99.90
20459;DHT22;10388;52.314;7.938;2023-02-27T05:43:45;-4.90;99.90
20459;DHT22;10388;52.314;7.938;2023-02-27T05:46:25;-4.90;99.90
20459;DHT22;10388;52.314;7.938;2023-02-27T05:49:04;-4.90;99.90
20459;DHT22;10388;52.314;7.938;2023-02-27T05:51:37;-4.90;99.90
20459;DHT22;10388;52.314;7.938;2023-02-27T05:54:27;-4.90;99.90
20459;DHT22;10388;52.314;7.938;2023-02-27T05:57:01;-4.90;99.90
20459;DHT22;10388;52.314;7.938;2023-02-27T05:59:38;-4.90;99.90
20459;DHT22;10388;52.314;7.938;2023-02-27T06:02:13;-4.90;99.90
20459;DHT22;10388;52.314;7.938;2023-02-27T06:04:43;-4.90;99.90
20459;DHT22;10388;52.314;7.938;2023-02-27T06:07:14;-4.90;99.90
20459;DHT22;10388;52.314;7.938;2023-02-27T06:09:45;-4.90;99.90
20459;DHT22;10388;52.314;7.938;2023-02-27T06:12:16;-4.90;99.90
20459;DHT22;10388;52.314;7.938;2023-02-27T06:14:47;-4.90;99.90
20459;DHT22;10388;52.314;7.938;2023-02-27T06:17:17;-4.90;99.90
20459;DHT22;10388;52.314;7.938;2023-02-27T06:19:48;-4.90;99.90
20459;DHT22;10388;52.314;7.938;2023-02-27T06:22:18;-4.90;99.90
20459;DHT22;10388;52.314;7.938;2023-02-27T06:24:49;-4.90;99.90
20459;DHT22;10388;52.314;7.938;2023-02-27T06:27:19;-4.90;99.90
20459;DHT22;10388;52.314;7.938;2023-02-27T06:29:50;-4.90;99.90
20459;DHT22;10388;52.314;7.938;2023-02-27T06:32:21;-4.90;99.90
20459;DHT22;10388;52.314;7.938;2023-02-27T06:34:54;-5.00;99.90
20459;DHT22;10388;52.314;7.938;2023-02-27T06:37:25;-4.90;99.90
20459;DHT22;10388;52.314;7.938;2023-02-27T06:39:55;-4.90;99.90
20459;DHT22;10388;52.314;7.938;2023-02-27T06:42:26;-4.90;99.90
20459;DHT22;10388;52.314;7.938;2023-02-27T06:44:56;-4.90;99.90
20459;DHT22;10388;52.314;7.938;2023-02-27T06:47:27;-4.90;99.90
20459;DHT22;10388;52.314;7.938;2023-02-27T06:49:57;-4.90;99.90
20459;DHT22;10388;52.314;7.938;2023-02-27T06:52:28;-4.90;99.90
20459;DHT22;10388;52.314;7.938;2023-02-27T06:54:58;-4.90;99.90
20459;DHT22;10388;52.314;7.938;2023-02-27T06:57:29;-4.90;99.90
20459;DHT22;10388;52.314;7.938;2023-02-27T06:59:59;-4.80;99.90
20459;DHT22;10388;52.314;7.938;2023-02-27T07:02:30;-4.80;99.90
20459;DHT22;10388;52.314;7.938;2023-02-27T07:05:00;-4.80;99.90
20459;DHT22;10388;52.314;7.938;2023-02-27T07:07:31;-4.70;99.90
20459;DHT22;10388;52.314;7.938;2023-02-27T07:10:04;-4.70;99.90
20459;DHT22;10388;52.314;7.938;2023-02-27T07:12:34;-4.70;99.90
20459;DHT22;10388;52.314;7.938;2023-02-27T07:15:06;-4.70;99.90
20459;DHT22;10388;52.314;7.938;2023-02-27T07:17:37;-4.60;99.90
20459;DHT22;10388;52.314;7.938;2023-02-27T07:20:09;-4.50;99.90
20459;DHT22;10388;52.314;7.938;2023-02-27T07:22:41;-4.50;99.90
20459;DHT22;10388;52.314;7.938;2023-02-27T07:25:11;-4.40;99.90
20459;DHT22;10388;52.314;7.938;2023-02-27T07:27:42;-4.30;99.90
20459;DHT22;10388;52.314;7.938;2023-02-27T07:30:15;-4.30;99.90
20459;DHT22;10388;52.314;7.938;2023-02-27T07:32:46;-4.20;99.90
20459;DHT22;10388;52.314;7.938;2023-02-27T07:35:17;-4.10;99.90
20459;DHT22;10388;52.314;7.938;2023-02-27T07:37:47;-4.00;99.90
20459;DHT22;10388;52.314;7.938;2023-02-27T07:40:18;-3.80;99.90
20459;DHT22;10388;52.314;7.938;2023-02-27T07:42:49;-3.60;99.90
20459;DHT22;10388;52.314;7.938;2023-02-27T07:45:19;-3.40;99.90
20459;DHT22;10388;52.314;7.938;2023-02-27T07:47:51;-3.30;99.90
20459;DHT22;10388;52.314;7.938;2023-02-27T07:50:22;-3.10;99.90
20459;DHT22;10388;52.314;7.938;2023-02-27T07:52:52;-2.90;99.90
20459;DHT22;10388;52.314;7.938;2023-02-27T07:55:23;-2.80;99.90
20459;DHT22;10388;52.314;7.938;2023-02-27T07:57:53;-2.70;99.90
20459;DHT22;10388;52.314;7.938;2023-02-27T08:00:24;-2.60;99.90
20459;DHT22;10388;52.314;7.938;2023-02-27T08:02:54;-2.40;99.90
20459;DHT22;10388;52.314;7.938;2023-02-27T08:05:25;-2.30;99.90
20459;DHT22;10388;52.314;7.938;2023-02-27T08:07:55;-2.10;99.90
20459;DHT22;10388;52.314;7.938;2023-02-27T08:10:26;-2.00;99.90
20459;DHT22;10388;52.314;7.938;2023-02-27T08:12:57;-1.90;99.90
20459;DHT22;10388;52.314;7.938;2023-02-27T08:15:27;-1.80;99.90
20459;DHT22;10388;52.314;7.938;2023-02-27T08:17:58;-1.70;99.90
20459;DHT22;10388;52.314;7.938;2023-02-27T08:20:29;-1.60;99.90
20459;DHT22;10388;52.314;7.938;2023-02-27T08:23:01;-1.50;99.90
20459;DHT22;10388;52.314;7.938;2023-02-27T08:25:31;-1.30;99.90
20459;DHT22;10388;52.314;7.938;2023-02-27T08:28:02;-1.10;99.90
20459;DHT22;10388;52.314;7.938;2023-02-27T08:30:33;-0.90;99.90
20459;DHT22;10388;52.314;7.938;2023-02-27T08:33:03;-0.80;99.90
20459;DHT22;10388;52.314;7.938;2023-02-27T08:35:34;-0.70;99.90
20459;DHT22;10388;52.314;7.938;2023-02-27T08:38:04;-0.60;99.90
20459;DHT22;10388;52.314;7.938;2023-02-27T08:40:35;-0.50;99.90
20459;DHT22;10388;52.314;7.938;2023-02-27T08:43:05;-0.40;99.90
20459;DHT22;10388;52.314;7.938;2023-02-27T08:45:36;-0.30;99.90
20459;DHT22;10388;52.314;7.938;2023-02-27T08:48:07;-0.20;99.90
20459;DHT22;10388;52.314;7.938;2023-02-27T08:50:37;-0.10;99.90
20459;DHT22;10388;52.314;7.938;2023-02-27T08:53:08;0.00;99.90
20459;DHT22;10388;52.314;7.938;2023-02-27T08:55:38;0.00;99.90
20459;DHT22;10388;52.314;7.938;2023-02-27T08:58:09;0.10;99.90
20459;DHT22;10388;52.314;7.938;2023-02-27T09:00:40;0.20;99.90
20459;DHT22;10388;52.314;7.938;2023-02-27T09:03:10;0.30;99.90
20459;DHT22;10388;52.314;7.938;2023-02-27T09:05:41;0.40;99.90
20459;DHT22;10388;52.314;7.938;2023-02-27T09:08:12;0.40;99.90
20459;DHT22;10388;52.314;7.938;2023-02-27T09:10:42;0.60;99.90
20459;DHT22;10388;52.314;7.938;2023-02-27T09:13:13;0.60;99.90
20459;DHT22;10388;52.314;7.938;2023-02-27T09:15:46;0.70;99.90
20459;DHT22;10388;52.314;7.938;2023-02-27T09:18:17;0.80;99.90
20459;DHT22;10388;52.314;7.938;2023-02-27T09:20:48;0.90;99.90
20459;DHT22;10388;52.314;7.938;2023-02-27T09:23:20;1.10;99.90
20459;DHT22;10388;52.314;7.938;2023-02-27T09:25:50;1.10;99.90
20459;DHT22;10388;52.314;7.938;2023-02-27T09:28:21;1.20;99.90
20459;DHT22;10388;52.314;7.938;2023-02-27T09:30:52;1.40;99.90
20459;DHT22;10388;52.314;7.938;2023-02-27T09:33:22;1.50;99.90
20459;DHT22;10388;52.314;7.938;2023-02-27T09:35:54;1.70;99.90
20459;DHT22;10388;52.314;7.938;2023-02-27T09:38:25;1.70;99.90
20459;DHT22;10388;52.314;7.938;2023-02-27T09:40:56;1.70;99.90
20459;DHT22;10388;52.314;7.938;2023-02-27T09:43:43;1.80;99.90
20459;DHT22;10388;52.314;7.938;2023-02-27T09:46:18;1.90;99.90
20459;DHT22;10388;52.314;7.938;2023-02-27T09:48:57;1.90;99.90
20459;DHT22;10388;52.314;7.938;2023-02-27T09:51:29;2.00;99.90
20459;DHT22;10388;52.314;7.938;2023-02-27T09:54:00;2.20;99.90
20459;DHT22;10388;52.314;7.938;2023-02-27T09:57:09;2.20;99.90
20459;DHT22;10388;52.314;7.938;2023-02-27T09:59:47;2.30;99.90
20459;DHT22;10388;52.314;7.938;2023-02-27T10:02:45;2.40;99.90
20459;DHT22;10388;52.314;7.938;2023-02-27T10:08:27;2.90;99.90
20459;DHT22;10388;52.314;7.938;2023-02-27T10:11:04;2.90;99.90
20459;DHT22;10388;52.314;7.938;2023-02-27T10:13:42;3.00;99.90
20459;DHT22;10388;52.314;7.938;2023-02-27T10:16:18;3.10;99.90
20459;DHT22;10388;52.314;7.938;2023-02-27T10:21:38;3.10;99.90
20459;DHT22;10388;52.314;7.938;2023-02-27T10:24:36;3.20;99.90
20459;DHT22;10388;52.314;7.938;2023-02-27T10:27:15;3.30;99.90
20459;DHT22;10388;52.314;7.938;2023-02-27T10:29:47;3.40;99.90
20459;DHT22;10388;52.314;7.938;2023-02-27T10:32:24;3.70;99.90
20459;DHT22;10388;52.314;7.938;2023-02-27T10:37:45;3.80;99.90
20459;DHT22;10388;52.314;7.938;2023-02-27T10:40:17;4.10;99.90
20459;DHT22;10388;52.314;7.938;2023-02-27T10:42:51;4.30;99.90
20459;DHT22;10388;52.314;7.938;2023-02-27T10:45:22;4.50;99.90
20459;DHT22;10388;52.314;7.938;2023-02-27T10:47:52;4.40;99.90
20459;DHT22;10388;52.314;7.938;2023-02-27T10:50:30;4.50;99.90
20459;DHT22;10388;52.314;7.938;2023-02-27T10:53:04;4.40;99.90
20459;DHT22;10388;52.314;7.938;2023-02-27T10:55:37;4.70;99.90
20459;DHT22;10388;52.314;7.938;2023-02-27T10:58:17;4.90;99.90
20459;DHT22;10388;52.314;7.938;2023-02-27T11:00:57;5.10;99.90
20459;DHT22;10388;52.314;7.938;2023-02-27T11:03:46;5.10;99.90
20459;DHT22;10388;52.314;7.938;2023-02-27T11:06:24;5.00;99.90
20459;DHT22;10388;52.314;7.938;2023-02-27T11:11:42;5.20;99.90
20459;DHT22;10388;52.314;7.938;2023-02-27T11:16:57;5.20;99.90
20459;DHT22;10388;52.314;7.938;2023-02-27T11:19:29;4.80;99.90
20459;DHT22;10388;52.314;7.938;2023-02-27T11:24:33;4.90;99.90
20459;DHT22;10388;52.314;7.938;2023-02-27T11:30:05;5.10;99.90
20459;DHT22;10388;52.314;7.938;2023-02-27T11:32:44;5.10;99.90
20459;DHT22;10388;52.314;7.938;2023-02-27T11:37:56;5.10;99.90
20459;DHT22;10388;52.314;7.938;2023-02-27T11:40:33;5.20;99.90
20459;DHT22;10388;52.314;7.938;2023-02-27T11:43:18;5.30;99.90
20459;DHT22;10388;52.314;7.938;2023-02-27T11:46:05;5.00;99.90
20459;DHT22;10388;52.314;7.938;2023-02-27T11:48:56;5.00;99.90
20459;DHT22;10388;52.314;7.938;2023-02-27T11:54:41;4.80;99.90
20459;DHT22;10388;52.314;7.938;2023-02-27T11:57:33;4.80;99.90
20459;DHT22;10388;52.314;7.938;2023-02-27T12:00:21;4.90;99.90
20459;DHT22;10388;52.314;7.938;2023-02-27T12:06:04;5.50;99.90
20459;DHT22;10388;52.314;7.938;2023-02-27T12:08:59;5.70;99.90
20459;DHT22;10388;52.314;7.938;2023-02-27T12:11:38;5.60;99.90
20459;DHT22;10388;52.314;7.938;2023-02-27T12:14:31;5.30;99.90
20459;DHT22;10388;52.314;7.938;2023-02-27T12:17:14;5.00;99.90
20459;DHT22;10388;52.314;7.938;2023-02-27T12:22:54;5.40;99.90
20459;DHT22;10388;52.314;7.938;2023-02-27T12:25:29;5.20;99.90
20459;DHT22;10388;52.314;7.938;2023-02-27T12:34:03;4.60;99.90
20459;DHT22;10388;52.314;7.938;2023-02-27T12:36:37;4.80;99.90
20459;DHT22;10388;52.314;7.938;2023-02-27T12:39:16;4.70;99.90
20459;DHT22;10388;52.314;7.938;2023-02-27T12:42:19;4.60;99.90
20459;DHT22;10388;52.314;7.938;2023-02-27T12:45:21;4.50;99.90
20459;DHT22;10388;52.314;7.938;2023-02-27T12:51:00;5.10;99.90
20459;DHT22;10388;52.314;7.938;2023-02-27T12:56:19;5.00;99.90
20459;DHT22;10388;52.314;7.938;2023-02-27T13:02:36;4.80;99.90
20459;DHT22;10388;52.314;7.938;2023-02-27T13:08:06;4.70;99.90
20459;DHT22;10388;52.314;7.938;2023-02-27T13:16:16;5.10;99.90
20459;DHT22;10388;52.314;7.938;2023-02-27T13:19:04;5.40;99.90
20459;DHT22;10388;52.314;7.938;2023-02-27T13:24:24;5.40;99.90
20459;DHT22;10388;52.314;7.938;2023-02-27T13:27:05;5.10;99.90
20459;DHT22;10388;52.314;7.938;2023-02-27T13:29:42;5.30;99.90
20459;DHT22;10388;52.314;7.938;2023-02-27T13:32:38;5.50;99.90
20459;DHT22;10388;52.314;7.938;2023-02-27T13:37:59;5.80;99.90
20459;DHT22;10388;52.314;7.938;2023-02-27T13:40:38;5.70;99.90
20459;DHT22;10388;52.314;7.938;2023-02-27T13:45:54;6.00;99.90
20459;DHT22;10388;52.314;7.938;2023-02-27T13:51:03;5.90;99.90
20459;DHT22;10388;52.314;7.938;2023-02-27T13:53:34;5.90;99.90
20459;DHT22;10388;52.314;7.938;2023-02-27T13:56:23;6.20;99.90
20459;DHT22;10388;52.314;7.938;2023-02-27T13:58:54;6.40;99.90
20459;DHT22;10388;52.314;7.938;2023-02-27T14:01:26;6.50;99.90
20459;DHT22;10388;52.314;7.938;2023-02-27T14:03:59;6.20;99.90
20459;DHT22;10388;52.314;7.938;2023-02-27T14:06:41;5.60;99.90
20459;DHT22;10388;52.314;7.938;2023-02-27T14:09:18;5.40;99.90
20459;DHT22;10388;52.314;7.938;2023-02-27T14:11:55;5.60;99.90
20459;DHT22;10388;52.314;7.938;2023-02-27T14:17:54;6.00;99.90
20459;DHT22;10388;52.314;7.938;2023-02-27T14:31:07;6.20;99.90
20459;DHT22;10388;52.314;7.938;2023-02-27T14:33:44;6.10;99.90
20459;DHT22;10388;52.314;7.938;2023-02-27T14:36:20;6.10;99.90
20459;DHT22;10388;52.314;7.938;2023-02-27T14:38:57;6.20;99.90
20459;DHT22;10388;52.314;7.938;2023-02-27T14:44:27;6.30;99.90
20459;DHT22;10388;52.314;7.938;2023-02-27T14:47:01;6.30;99.90
20459;DHT22;10388;52.314;7.938;2023-02-27T14:49:34;6.30;99.90
20459;DHT22;10388;52.314;7.938;2023-02-27T14:52:20;6.10;99.90
20459;DHT22;10388;52.314;7.938;2023-02-27T14:54:52;6.10;99.90
20459;DHT22;10388;52.314;7.938;2023-02-27T14:57:24;6.00;99.90
20459;DHT22;10388;52.314;7.938;2023-02-27T14:59:58;5.80;99.90
20459;DHT22;10388;52.314;7.938;2023-02-27T15:02:31;5.80;99.90
20459;DHT22;10388;52.314;7.938;2023-02-27T15:05:13;5.90;99.90
20459;DHT22;10388;52.314;7.938;2023-02-27T15:07:45;5.90;99.90
20459;DHT22;10388;52.314;7.938;2023-02-27T15:10:20;5.90;99.90
20459;DHT22;10388;52.314;7.938;2023-02-27T15:12:54;5.80;99.90
20459;DHT22;10388;52.314;7.938;2023-02-27T15:15:24;5.80;99.90
20459;DHT22;10388;52.314;7.938;2023-02-27T15:17:55;5.70;99.90
20459;DHT22;10388;52.314;7.938;2023-02-27T15:20:32;5.70;99.90
20459;DHT22;10388;52.314;7.938;2023-02-27T15:23:24;5.70;99.90
20459;DHT22;10388;52.314;7.938;2023-02-27T15:25:57;5.60;99.90
20459;DHT22;10388;52.314;7.938;2023-02-27T15:28:36;5.60;99.90
20459;DHT22;10388;52.314;7.938;2023-02-27T15:31:10;5.60;99.90
20459;DHT22;10388;52.314;7.938;2023-02-27T15:33:42;5.50;99.90
20459;DHT22;10388;52.314;7.938;2023-02-27T15:36:21;5.50;99.90
20459;DHT22;10388;52.314;7.938;2023-02-27T15:39:14;5.40;99.90
20459;DHT22;10388;52.314;7.938;2023-02-27T15:41:57;5.40;99.90
20459;DHT22;10388;52.314;7.938;2023-02-27T15:44:43;5.40;99.90
20459;DHT22;10388;52.314;7.938;2023-02-27T15:47:19;5.40;99.90
20459;DHT22;10388;52.314;7.938;2023-02-27T15:49:59;5.30;99.90
20459;DHT22;10388;52.314;7.938;2023-02-27T15:52:36;5.30;99.90
20459;DHT22;10388;52.314;7.938;2023-02-27T15:55:14;5.30;99.90
20459;DHT22;10388;52.314;7.938;2023-02-27T15:57:45;5.30;99.90
20459;DHT22;10388;52.314;7.938;2023-02-27T16:00:17;5.30;99.90
20459;DHT22;10388;52.314;7.938;2023-02-27T16:02:56;5.40;99.90
20459;DHT22;10388;52.314;7.938;2023-02-27T16:05:33;5.30;99.90
20459;DHT22;10388;52.314;7.938;2023-02-27T16:08:05;5.10;99.90
20459;DHT22;10388;52.314;7.938;2023-02-27T16:10:40;5.10;99.90
20459;DHT22;10388;52.314;7.938;2023-02-27T16:16:22;4.90;99.90
20459;DHT22;10388;52.314;7.938;2023-02-27T16:18:55;4.90;99.90
20459;DHT22;10388;52.314;7.938;2023-02-27T16:21:28;4.90;99.90
20459;DHT22;10388;52.314;7.938;2023-02-27T16:24:19;4.90;99.90
20459;DHT22;10388;52.314;7.938;2023-02-27T16:26:51;4.80;99.90
20459;DHT22;10388;52.314;7.938;2023-02-27T16:29:33;4.70;99.90
20459;DHT22;10388;52.314;7.938;2023-02-27T16:32:04;4.70;99.90
20459;DHT22;10388;52.314;7.938;2023-02-27T16:34:37;4.60;99.90
20459;DHT22;10388;52.314;7.938;2023-02-27T16:37:19;4.60;99.90
20459;DHT22;10388;52.314;7.938;2023-02-27T16:39:50;4.50;99.90
20459;DHT22;10388;52.314;7.938;2023-02-27T16:42:23;4.40;99.90
20459;DHT22;10388;52.314;7.938;2023-02-27T16:44:54;4.40;99.90
20459;DHT22;10388;52.314;7.938;2023-02-27T16:47:24;4.40;99.90
20459;DHT22;10388;52.314;7.938;2023-02-27T16:49:55;4.30;99.90
20459;DHT22;10388;52.314;7.938;2023-02-27T16:52:26;4.20;99.90
20459;DHT22;10388;52.314;7.938;2023-02-27T16:54:56;4.10;99.90
20459;DHT22;10388;52.314;7.938;2023-02-27T16:57:27;4.10;99.90
20459;DHT22;10388;52.314;7.938;2023-02-27T16:59:57;4.00;99.90
20459;DHT22;10388;52.314;7.938;2023-02-27T17:02:28;3.90;99.90
20459;DHT22;10388;52.314;7.938;2023-02-27T17:04:59;3.80;99.90
20459;DHT22;10388;52.314;7.938;2023-02-27T17:07:29;3.70;99.90
20459;DHT22;10388;52.314;7.938;2023-02-27T17:10:00;3.60;99.90
20459;DHT22;10388;52.314;7.938;2023-02-27T17:12:31;3.50;99.90
20459;DHT22;10388;52.314;7.938;2023-02-27T17:15:01;3.40;99.90
20459;DHT22;10388;52.314;7.938;2023-02-27T17:17:32;3.40;99.90
20459;DHT22;10388;52.314;7.938;2023-02-27T17:20:03;3.30;99.90
20459;DHT22;10388;52.314;7.938;2023-02-27T17:22:42;3.20;99.90
20459;DHT22;10388;52.314;7.938;2023-02-27T17:25:13;3.20;99.90
20459;DHT22;10388;52.314;7.938;2023-02-27T17:27:44;3.10;99.90
20459;DHT22;10388;52.314;7.938;2023-02-27T17:30:15;3.10;99.90
20459;DHT22;10388;52.314;7.938;2023-02-27T17:32:46;3.00;99.90
20459;DHT22;10388;52.314;7.938;2023-02-27T17:35:17;2.80;99.90
20459;DHT22;10388;52.314;7.938;2023-02-27T17:37:47;2.70;99.90
20459;DHT22;10388;52.314;7.938;2023-02-27T17:40:18;2.60;99.90
20459;DHT22;10388;52.314;7.938;2023-02-27T17:42:48;2.50;99.90
20459;DHT22;10388;52.314;7.938;2023-02-27T17:45:19;2.40;99.90
20459;DHT22;10388;52.314;7.938;2023-02-27T17:47:50;2.30;99.90
20459;DHT22;10388;52.314;7.938;2023-02-27T17:50:21;2.10;99.90
20459;DHT22;10388;52.314;7.938;2023-02-27T17:52:51;2.00;99.90
20459;DHT22;10388;52.314;7.938;2023-02-27T17:55:22;1.90;99.90
20459;DHT22;10388;52.314;7.938;2023-02-27T17:57:52;1.90;99.90
20459;DHT22;10388;52.314;7.938;2023-02-27T18:00:23;1.80;99.90
20459;DHT22;10388;52.314;7.938;2023-02-27T18:02:54;1.70;99.90
20459;DHT22;10388;52.314;7.938;2023-02-27T18:05:24;1.60;99.90
20459;DHT22;10388;52.314;7.938;2023-02-27T18:07:55;1.50;99.90
20459;DHT22;10388;52.314;7.938;2023-02-27T18:10:25;1.40;99.90
20459;DHT22;10388;52.314;7.938;2023-02-27T18:12:56;1.30;99.90
20459;DHT22;10388;52.314;7.938;2023-02-27T18:15:26;1.20;99.90
20459;DHT22;10388;52.314;7.938;2023-02-27T18:17:57;1.20;99.90
20459;DHT22;10388;52.314;7.938;2023-02-27T18:20:27;1.10;99.90
20459;DHT22;10388;52.314;7.938;2023-02-27T18:22:58;1.00;99.90
20459;DHT22;10388;52.314;7.938;2023-02-27T18:25:29;1.00;99.90
20459;DHT22;10388;52.314;7.938;2023-02-27T18:27:59;0.90;99.90
20459;DHT22;10388;52.314;7.938;2023-02-27T18:30:31;0.80;99.90
20459;DHT22;10388;52.314;7.938;2023-02-27T18:33:05;0.70;99.90
20459;DHT22;10388;52.314;7.938;2023-02-27T18:35:35;0.70;99.90
20459;DHT22;10388;52.314;7.938;2023-02-27T18:38:06;0.60;99.90
20459;DHT22;10388;52.314;7.938;2023-02-27T18:40:36;0.60;99.90
20459;DHT22;10388;52.314;7.938;2023-02-27T18:43:10;0.50;99.90
20459;DHT22;10388;52.314;7.938;2023-02-27T18:45:41;0.50;99.90
20459;DHT22;10388;52.314;7.938;2023-02-27T18:48:12;0.40;99.90
20459;DHT22;10388;52.314;7.938;2023-02-27T18:50:45;0.40;99.90
20459;DHT22;10388;52.314;7.938;2023-02-27T18:53:16;0.30;99.90
20459;DHT22;10388;52.314;7.938;2023-02-27T18:55:47;0.20;99.90
20459;DHT22;10388;52.314;7.938;2023-02-27T18:58:17;0.20;99.90
20459;DHT22;10388;52.314;7.938;2023-02-27T19:00:48;0.10;99.90
20459;DHT22;10388;52.314;7.938;2023-02-27T19:03:19;0.10;99.90
20459;DHT22;10388;52.314;7.938;2023-02-27T19:05:49;0.00;99.90
20459;DHT22;10388;52.314;7.938;2023-02-27T19:08:20;-0.10;99.90
20459;DHT22;10388;52.314;7.938;2023-02-27T19:10:55;-0.10;99.90
20459;DHT22;10388;52.314;7.938;2023-02-27T19:13:25;-0.10;99.90
20459;DHT22;10388;52.314;7.938;2023-02-27T19:15:56;-0.20;99.90
20459;DHT22;10388;52.314;7.938;2023-02-27T19:18:30;-0.20;99.90
20459;DHT22;10388;52.314;7.938;2023-02-27T19:21:03;-0.30;99.90
20459;DHT22;10388;52.314;7.938;2023-02-27T19:23:34;-0.30;99.90
20459;DHT22;10388;52.314;7.938;2023-02-27T19:26:05;-0.30;99.90
20459;DHT22;10388;52.314;7.938;2023-02-27T19:28:36;-0.30;99.90
20459;DHT22;10388;52.314;7.938;2023-02-27T19:31:09;-0.40;99.90
20459;DHT22;10388;52.314;7.938;2023-02-27T19:33:40;-0.50;99.90
20459;DHT22;10388;52.314;7.938;2023-02-27T19:36:12;-0.50;99.90
20459;DHT22;10388;52.314;7.938;2023-02-27T19:38:43;-0.60;99.90
20459;DHT22;10388;52.314;7.938;2023-02-27T19:41:14;-0.60;99.90
20459;DHT22;10388;52.314;7.938;2023-02-27T19:43:49;-0.60;99.90
20459;DHT22;10388;52.314;7.938;2023-02-27T19:46:25;-0.60;99.90
20459;DHT22;10388;52.314;7.938;2023-02-27T19:48:58;-0.70;99.90
20459;DHT22;10388;52.314;7.938;2023-02-27T19:51:29;-0.70;99.90
20459;DHT22;10388;52.314;7.938;2023-02-27T19:54:01;-0.70;99.90
20459;DHT22;10388;52.314;7.938;2023-02-27T19:56:31;-0.80;99.90
20459;DHT22;10388;52.314;7.938;2023-02-27T19:59:02;-0.80;99.90
20459;DHT22;10388;52.314;7.938;2023-02-27T20:01:34;-0.90;99.90
20459;DHT22;10388;52.314;7.938;2023-02-27T20:04:06;-0.90;99.90
20459;DHT22;10388;52.314;7.938;2023-02-27T20:06:37;-1.00;99.90
20459;DHT22;10388;52.314;7.938;2023-02-27T20:09:15;-1.00;99.90
20459;DHT22;10388;52.314;7.938;2023-02-27T20:11:47;-1.00;99.90
20459;DHT22;10388;52.314;7.938;2023-02-27T20:14:18;-1.10;99.90
20459;DHT22;10388;52.314;7.938;2023-02-27T20:16:48;-1.10;99.90
20459;DHT22;10388;52.314;7.938;2023-02-27T20:19:20;-1.10;99.90
20459;DHT22;10388;52.314;7.938;2023-02-27T20:21:51;-1.20;99.90
20459;DHT22;10388;52.314;7.938;2023-02-27T20:24:23;-1.20;99.90
20459;DHT22;10388;52.314;7.938;2023-02-27T20:26:54;-1.20;99.90
20459;DHT22;10388;52.314;7.938;2023-02-27T20:29:27;-1.20;99.90
20459;DHT22;10388;52.314;7.938;2023-02-27T20:31:57;-1.30;99.90
20459;DHT22;10388;52.314;7.938;2023-02-27T20:34:28;-1.30;99.90
20459;DHT22;10388;52.314;7.938;2023-02-27T20:36:59;-1.40;99.90
20459;DHT22;10388;52.314;7.938;2023-02-27T20:39:30;-1.40;99.90
20459;DHT22;10388;52.314;7.938;2023-02-27T20:42:00;-1.50;99.90
20459;DHT22;10388;52.314;7.938;2023-02-27T20:44:31;-1.50;99.90
20459;DHT22;10388;52.314;7.938;2023-02-27T20:47:02;-1.60;99.90
20459;DHT22;10388;52.314;7.938;2023-02-27T20:49:32;-1.60;99.90
20459;DHT22;10388;52.314;7.938;2023-02-27T20:52:03;-1.60;99.90
20459;DHT22;10388;52.314;7.938;2023-02-27T20:54:34;-1.60;99.90
20459;DHT22;10388;52.314;7.938;2023-02-27T20:57:04;-1.70;99.90
20459;DHT22;10388;52.314;7.938;2023-02-27T20:59:35;-1.70;99.90
20459;DHT22;10388;52.314;7.938;2023-02-27T21:02:05;-1.70;99.90
20459;DHT22;10388;52.314;7.938;2023-02-27T21:04:37;-1.70;99.90
20459;DHT22;10388;52.314;7.938;2023-02-27T21:07:17;-1.70;99.90
20459;DHT22;10388;52.314;7.938;2023-02-27T21:09:49;-1.70;99.90
20459;DHT22;10388;52.314;7.938;2023-02-27T21:12:19;-1.80;99.90
20459;DHT22;10388;52.314;7.938;2023-02-27T21:14:50;-1.80;99.90
20459;DHT22;10388;52.314;7.938;2023-02-27T21:17:20;-1.90;99.90
20459;DHT22;10388;52.314;7.938;2023-02-27T21:19:52;-1.90;99.90
20459;DHT22;10388;52.314;7.938;2023-02-27T21:22:23;-1.90;99.90
20459;DHT22;10388;52.314;7.938;2023-02-27T21:24:53;-1.90;99.90
20459;DHT22;10388;52.314;7.938;2023-02-27T21:27:24;-2.00;99.90
20459;DHT22;10388;52.314;7.938;2023-02-27T21:29:54;-2.00;99.90
20459;DHT22;10388;52.314;7.938;2023-02-27T21:32:25;-2.10;99.90
20459;DHT22;10388;52.314;7.938;2023-02-27T21:34:56;-2.10;99.90